You are listening to:
KLOU Tower - Louisville, Kentucky, United States

KLOU 210053Z 18004KT 10SM CLR 18/12 A2993 RMK AO2 SLP131 T01830122

If stream does not start automatically press the play button